x

Half Moon Bay - 24nm Ssw Of San Francisco, Ca (46012) Wave Buoy

10:50pm - Sat 31st Jan 2015 All times are PST. -8 hours from GMT.

  • Sig Wave height 5.6ft
  • Swell Direction
  • Peak Period 13s
  • Average Period 7s
  • Wind
    9mph, 11mph gusts
  • Sea Temp 58°f
  • Air Temp 57°f
  • Sea Pressure 1017.3mb
  • Half Moon Bay - 24nm Ssw Of San Francisco, Ca
  • Half Moon Bay - 24nm Ssw Of San Francisco, Ca

More Historic Weather Station data

Upgrade to MSW Pro to gain access to the past 30 days of data for over 8000 Wavebouys and Weather Stations around the globe.

Join Pro

Comparision Forecast

View Surf forecast
   
Sat 01/31 10:50pm 5.5ft 13s 7s 9 11 mph 1017.3mb 58f 57f
9:50pm 6ft 14s 7s 11 16 mph 1017.1mb 58f 57f
8:50pm 6ft 14s 7s 13 16 mph 1016.7mb 58f 57f
7:50pm 6ft 14s 8s 16 18 mph 1015.9mb 58f 57f
6:50pm 6ft 14s 7s 16 20 mph 1015.6mb 58f 57f
5:50pm 6ft 14s 7s 16 18 mph 1014.9mb 59f 58f
4:50pm 7ft 15s 8s 13 16 mph 1014.8mb 59f 58f
3:50pm 7ft 14s 7s 11 13 mph 1014.4mb 59f 58f
2:50pm 6.5ft 14s 7s 13 16 mph 1014.5mb 59f 58f
1:50pm 7.5ft 14s 8s 11 13 mph 1014.5mb 58f 58f
12:50pm 7ft 14s 7s 13 18 mph 1014.7mb 58f 58f
11:50am 8ft 14s 8s 11 16 mph 1015.4mb 58f 58f
10:50am 8ft 14s 8s 13 16 mph 1015.3mb 58f 58f
9:50am 8ft 14s 8s 13 18 mph 1015.2mb 58f 58f
8:50am 7ft 14s 8s 7 9 mph 1014.3mb 58f 59f
7:50am 7.5ft 14s 7s 11 13 mph 1013.6mb 58f 58f
6:50am 8ft 15s 7s 16 20 mph 1013mb 58f 58f
5:50am 8ft 8s 7s 20 25 mph 1012.6mb 58f 57f
4:50am 8ft 15s 7s 18 20 mph 1012.1mb 58f 58f
3:50am 8ft 9s 7s 18 20 mph 1012.1mb 58f 58f
2:50am 8ft 15s 7s 20 25 mph 1012.2mb 58f 58f
1:50am 8ft 15s 7s 20 25 mph 1012.4mb 58f 57f
12:50am 8ft 15s 7s 16 20 mph 1012.7mb 58f 57f
Fri 01/30 11:50pm 9ft 15s 7s 11 13 mph 1013mb 58f 57f
10:50pm 8.5ft 8s 7s 11 16 mph 1013.2mb 58f 57f
9:50pm 8ft 15s 7s 13 18 mph 1013.4mb 58f 57f
8:50pm 8.5ft 15s 7s 13 18 mph 1013mb 58f 57f
7:50pm 8ft 15s 7s 20 22 mph 1013.3mb 58f 57f
6:50pm 8ft 15s 7s 20 22 mph 1013.4mb 58f 57f
5:50pm 8ft 8s 7s 18 22 mph 1013.5mb 58f 57f
4:50pm 8.5ft 15s 7s 18 22 mph 1013mb 58f 56f
3:50pm 7ft 15s 7s 20 25 mph 1013.3mb 58f 56f
2:50pm 7.5ft 15s 7s 16 20 mph 1013.5mb 58f 56f
1:50pm 7.5ft 16s 7s 18 20 mph 1014.2mb 58f 56f
12:50pm 8ft 16s 7s 18 20 mph 1014.8mb 58f 56f
11:50am 9ft 16s 7s 16 20 mph 1015.6mb 58f 56f
10:50am 9ft 16s 7s 16 20 mph 1016.2mb 58f 56f
9:50am 8.5ft 16s 7s 16 18 mph 1016.3mb 58f 56f
8:50am 9ft 16s 8s 16 18 mph 1016.3mb 58f 56f
7:50am 8.5ft 8s 7s 16 20 mph 1016.1mb 58f 56f
6:50am 9ft 16s 7s 18 22 mph 1016.1mb 58f 56f
5:50am 8ft 16s 7s 20 25 mph 1016.2mb 58f 56f
4:50am 9ft 16s 7s 20 25 mph 1016.4mb 58f 56f
3:50am 7.5ft 7s 6s 22 27 mph 1016.8mb 58f 56f
2:50am 7ft 16s 6s 22 25 mph 1017.2mb 58f 56f
1:50am 8ft 17s 7s 20 25 mph 1017.6mb 58f 56f
12:50am 7.5ft 17s 7s 20 22 mph 1017.8mb 58f 56f
Thu 01/29 11:50pm 8ft 17s 7s 20 25 mph 1018mb 58f 56f
10:50pm 7.5ft 17s 7s 20 25 mph 1018.2mb 58f 56f
9:50pm 7.5ft 17s 7s 20 25 mph 1018.1mb 58f 56f
8:50pm 7ft 17s 7s 20 25 mph 1018.2mb 58f 57f
7:50pm 6.5ft 17s 6s 20 25 mph 1018.5mb 58f 56f
6:50pm 6.5ft 17s 7s 20 27 mph 1018.4mb 59f 56f
5:50pm 6ft 17s 6s 20 25 mph 1018.2mb 59f 57f
4:50pm 6.5ft 17s 7s 20 22 mph 1018.1mb 59f 57f
3:50pm 7ft 17s 7s 20 22 mph 1018.1mb 59f 57f
2:50pm 6ft 17s 7s 20 25 mph 1018.4mb 59f 57f
1:50pm 6ft 17s  -  22 27 mph 1018.6mb 59f 57f
12:50pm 5.5ft 17s 7s 16 20 mph 1019.1mb 59f 57f
11:50am 6.5ft 19s 8s 16 18 mph 1020.1mb 59f 57f
10:50am 6ft 19s 8s 13 16 mph 1020.5mb 59f 57f
9:50am 6.5ft 19s 8s 13 16 mph 1020.5mb 59f 57f
8:50am 5.5ft 11s 7s 13 16 mph 1020.3mb 59f 57f
7:50am 6ft 19s 7s 13 16 mph 1019.9mb 59f 57f
6:50am 6.5ft 19s 7s 13 16 mph 1019.7mb 59f 57f
5:50am 6ft 12s 6s 16 18 mph 1019.5mb 59f 57f
4:50am 6ft 19s 7s 16 18 mph 1019.4mb 59f 57f
3:50am 6ft 19s 6s 16 20 mph 1019.8mb 59f 56f
2:50am 6.5ft 12s 7s 16 20 mph 1020.8mb 59f 56f
1:50am 6ft 13s 7s 16 20 mph 1020.8mb 59f 56f
12:50am 6ft 13s 7s 18 20 mph 1020.8mb 59f 56f
Wed 01/28 11:50pm 6.5ft 12s 8s 13 18 mph 1021.4mb 59f 56f
10:50pm 5.5ft 13s 7s 13 18 mph 1021.5mb 59f 56f
9:50pm 6ft 13s 8s 16 18 mph 1021.5mb 59f 56f
8:50pm 6ft 13s 9s 13 16 mph 1021.6mb 59f 57f
7:50pm 5.5ft 13s 9s 9 13 mph 1021.7mb 59f 57f
6:50pm 5ft 12s 8s 11 16 mph 1021.8mb 59f 56f
5:50pm 5ft 13s 9s 13 16 mph 1021.4mb 59f 56f
4:50pm 5ft 14s 10s 13 16 mph 1021.1mb 59f 58f
3:50pm 5.5ft 13s 10s 11 13 mph 1021.4mb 59f 58f
2:50pm 5ft 13s 10s 9 11 mph 1021.6mb 59f 59f
1:50pm 6ft 13s 10s 9 11 mph 1022.1mb 59f 59f
12:50pm 5ft 14s 10s 4 7 mph 1022.5mb 59f 59f
11:50am 6ft 13s 10s 4 7 mph 1023.3mb 59f 58f
10:50am 6ft 13s 10s 7 9 mph 1023.8mb 59f 59f
9:50am 5.5ft 13s 10s 7 9 mph 1024mb 59f 58f
8:50am 5.5ft 14s 10s 7 9 mph 1023.8mb 59f 58f